Time;durP1;ratioP1;P1;durP2;ratioP2;P2;SDS_P1;SDS_P2;PMS_P1;PMS_P2;Temp;Humidity;BMP_temperature;BMP_pressure;BME280_temperature;BME280_humidity;BME280_pressure;Samples;Min_cycle;Max_cycle;Signal;HPM_P1;HPM_P2
2023/08/20 00:01:44;;;;;;;8.38;5.95;;;23.70;99.90;;;;;;5021323;28;20036;-70
2023/08/20 00:04:10;;;;;;;9.43;6.03;;;23.70;99.90;;;;;;5025302;28;20532;-70
2023/08/20 00:06:36;;;;;;;9.60;5.90;;;23.70;99.90;;;;;;5020939;28;20042;-70
2023/08/20 00:09:01;;;;;;;9.77;5.60;;;23.70;99.90;;;;;;5026403;28;20045;-70
2023/08/20 00:11:30;;;;;;;9.55;6.63;;;23.70;99.90;;;;;;5019799;28;20036;-70
2023/08/20 00:13:56;;;;;;;9.55;6.32;;;23.60;99.90;;;;;;5020030;28;20034;-70
2023/08/20 00:16:22;;;;;;;11.32;6.90;;;23.60;99.90;;;;;;5025386;28;20029;-70
2023/08/20 00:18:48;;;;;;;12.38;6.13;;;23.60;99.90;;;;;;5023183;28;20025;-70
2023/08/20 00:21:14;;;;;;;9.45;6.03;;;23.60;99.90;;;;;;5023424;28;20120;-70
2023/08/20 00:23:40;;;;;;;8.95;6.60;;;23.50;99.90;;;;;;5021094;28;20060;-70
2023/08/20 00:26:12;;;;;;;8.82;6.53;;;23.50;99.90;;;;;;5020704;28;20519;-70
2023/08/20 00:28:38;;;;;;;8.73;6.05;;;23.50;99.90;;;;;;5019484;28;20065;-70
2023/08/20 00:31:07;;;;;;;11.73;6.90;;;23.40;99.90;;;;;;5015428;28;20025;-70
2023/08/20 00:33:32;;;;;;;9.15;6.05;;;23.30;99.90;;;;;;5024711;28;20056;-70
2023/08/20 00:36:01;;;;;;;12.95;7.10;;;23.30;99.90;;;;;;5018156;28;20030;-70
2023/08/20 00:38:26;;;;;;;7.70;6.20;;;23.30;99.90;;;;;;5025387;28;20083;-69
2023/08/20 00:40:52;;;;;;;11.07;6.65;;;23.30;99.90;;;;;;5026201;28;20042;-70
2023/08/20 00:43:23;;;;;;;9.05;6.07;;;23.30;99.90;;;;;;5018760;28;20037;-69
2023/08/20 00:45:52;;;;;;;9.73;6.30;;;23.30;99.90;;;;;;5024666;28;20029;-70
2023/08/20 00:48:18;;;;;;;10.60;6.82;;;23.30;99.90;;;;;;5019639;28;20055;-70
2023/08/20 00:50:45;;;;;;;10.82;6.95;;;23.30;99.90;;;;;;5022740;28;20032;-70
2023/08/20 00:53:14;;;;;;;10.25;6.05;;;23.30;99.90;;;;;;5016614;28;20113;-70
2023/08/20 00:55:41;;;;;;;10.13;6.65;;;23.30;99.90;;;;;;5021206;28;20108;-70
2023/08/20 00:58:06;;;;;;;10.98;6.28;;;23.20;99.90;;;;;;5022322;28;20065;-70
2023/08/20 01:00:35;;;;;;;12.63;6.57;;;23.20;99.90;;;;;;5020964;28;20026;-70
2023/08/20 01:03:00;;;;;;;9.27;6.60;;;23.20;99.90;;;;;;5021441;28;20117;-70
2023/08/20 01:05:29;;;;;;;10.35;6.90;;;23.20;99.90;;;;;;5021617;28;20308;-70
2023/08/20 01:08:27;;;;;;;10.18;6.68;;;23.20;99.90;;;;;;5023352;28;20056;-70
2023/08/20 01:11:30;;;;;;;9.75;6.63;;;23.10;99.90;;;;;;5004120;28;20045;-70
2023/08/20 01:13:59;;;;;;;9.00;6.05;;;23.10;99.90;;;;;;5023203;28;20025;-70
2023/08/20 01:16:28;;;;;;;8.73;6.72;;;23.00;99.90;;;;;;5020525;28;20359;-70
2023/08/20 01:18:56;;;;;;;8.45;6.03;;;23.00;99.90;;;;;;5025103;28;20049;-70
2023/08/20 01:21:44;;;;;;;11.38;6.47;;;22.90;99.90;;;;;;5022799;28;20080;-70
2023/08/20 01:24:58;;;;;;;9.73;6.75;;;22.90;99.90;;;;;;5019609;28;20042;-70
2023/08/20 01:27:44;;;;;;;9.77;6.28;;;22.90;99.90;;;;;;5025113;28;20499;-72
2023/08/20 01:30:11;;;;;;;10.82;6.25;;;22.90;99.90;;;;;;5025914;28;20029;-72
2023/08/20 01:32:38;;;;;;;12.88;7.05;;;22.90;99.90;;;;;;5022655;28;20068;-72
2023/08/20 01:35:04;;;;;;;9.55;6.60;;;22.90;99.90;;;;;;5024242;28;20022;-72
2023/08/20 01:37:29;;;;;;;7.30;6.07;;;22.90;99.90;;;;;;5025747;28;20029;-72
2023/08/20 01:39:55;;;;;;;10.98;6.47;;;22.90;99.90;;;;;;5021744;28;20037;-71
2023/08/20 01:42:30;;;;;;;11.10;7.07;;;22.90;99.90;;;;;;5020913;28;20044;-72
2023/08/20 01:44:55;;;;;;;11.25;7.13;;;22.90;99.90;;;;;;5019306;28;20022;-72
2023/08/20 01:47:21;;;;;;;7.32;6.32;;;22.90;99.90;;;;;;5025021;28;20021;-72
2023/08/20 01:49:46;;;;;;;13.45;6.88;;;22.90;99.90;;;;;;5025097;28;20018;-72
2023/08/20 01:52:18;;;;;;;9.68;6.57;;;22.90;99.90;;;;;;5024536;28;20419;-71
2023/08/20 01:54:43;;;;;;;10.85;7.03;;;22.90;99.90;;;;;;5017766;28;20018;-72
2023/08/20 01:57:09;;;;;;;10.45;6.80;;;22.90;99.90;;;;;;5022881;28;20368;-72
2023/08/20 01:59:35;;;;;;;8.23;6.32;;;22.90;99.90;;;;;;5024159;28;20515;-72
2023/08/20 02:02:05;;;;;;;10.40;6.85;;;22.80;99.90;;;;;;5020366;28;20164;-72
2023/08/20 02:04:31;;;;;;;10.35;7.70;;;22.80;99.90;;;;;;5025985;28;20076;-72
2023/08/20 02:06:57;;;;;;;11.07;6.90;;;22.70;99.90;;;;;;5020358;28;20038;-72
2023/08/20 02:09:26;;;;;;;10.55;6.60;;;22.70;99.90;;;;;;5025485;28;20045;-72
2023/08/20 02:11:57;;;;;;;12.00;7.63;;;22.60;99.90;;;;;;5020573;28;20029;-72
2023/08/20 02:14:23;;;;;;;10.05;6.38;;;22.60;99.90;;;;;;5018367;28;20045;-72
2023/08/20 02:16:48;;;;;;;10.63;6.70;;;22.60;99.90;;;;;;5023947;28;20025;-72
2023/08/20 02:19:17;;;;;;;11.98;7.18;;;22.50;99.90;;;;;;5024240;28;20519;-72
2023/08/20 02:21:43;;;;;;;11.13;7.25;;;22.50;99.90;;;;;;5020797;28;20041;-72
2023/08/20 02:24:11;;;;;;;9.70;7.60;;;22.50;99.90;;;;;;5021378;28;20034;-72
2023/08/20 02:26:37;;;;;;;11.45;7.05;;;22.40;99.90;;;;;;5022970;28;20025;-72
2023/08/20 02:29:06;;;;;;;9.77;7.45;;;22.40;99.90;;;;;;5020459;28;20026;-71
2023/08/20 02:31:31;;;;;;;10.40;6.80;;;22.30;99.90;;;;;;5021071;28;20423;-72
2023/08/20 02:33:57;;;;;;;9.10;6.97;;;22.30;99.90;;;;;;5020586;28;20021;-71
2023/08/20 02:36:22;;;;;;;7.95;7.10;;;22.30;99.90;;;;;;5023833;28;20390;-72
2023/08/20 02:38:49;;;;;;;11.02;7.43;;;22.30;99.90;;;;;;5019615;28;20456;-72
2023/08/20 02:41:15;;;;;;;11.23;7.28;;;22.30;99.90;;;;;;5019203;28;20043;-72
2023/08/20 02:43:40;;;;;;;11.70;7.18;;;22.30;99.90;;;;;;5019115;28;20105;-72
2023/08/20 02:46:09;;;;;;;11.00;7.70;;;22.30;99.90;;;;;;5019902;28;20084;-72
2023/08/20 02:48:37;;;;;;;11.43;7.40;;;22.30;99.90;;;;;;5021611;28;20491;-71
2023/08/20 02:51:03;;;;;;;9.63;7.30;;;22.30;99.90;;;;;;5022986;28;20384;-72
2023/08/20 02:53:29;;;;;;;9.77;7.28;;;22.30;99.90;;;;;;5021963;28;20116;-72
2023/08/20 02:55:56;;;;;;;13.15;7.60;;;22.20;99.90;;;;;;5020550;28;20037;-72
2023/08/20 02:58:40;;;;;;;7.80;7.00;;;22.20;99.90;;;;;;5019095;28;20036;-72
2023/08/20 03:01:22;;;;;;;9.63;7.22;;;22.30;99.90;;;;;;5016454;28;20069;-72
2023/08/20 03:03:51;;;;;;;9.77;6.90;;;22.20;99.90;;;;;;5026769;28;20021;-72
2023/08/20 03:06:16;;;;;;;9.68;7.35;;;22.20;99.90;;;;;;5024218;28;20336;-76
2023/08/20 03:08:42;;;;;;;14.18;7.57;;;22.30;99.90;;;;;;5018812;28;20025;-76
2023/08/20 03:11:08;;;;;;;10.20;7.63;;;22.30;99.90;;;;;;5030230;28;20032;-76
2023/08/20 03:13:36;;;;;;;15.55;7.85;;;22.20;99.90;;;;;;5021200;28;20416;-76
2023/08/20 03:16:03;;;;;;;12.38;8.00;;;22.20;99.90;;;;;;5026943;28;20087;-76
2023/08/20 03:18:31;;;;;;;8.90;6.90;;;22.20;99.90;;;;;;5024464;28;20105;-76
2023/08/20 03:21:00;;;;;;;11.27;7.07;;;22.20;99.90;;;;;;5034717;28;20037;-75
2023/08/20 03:23:31;;;;;;;12.95;7.05;;;22.10;99.90;;;;;;5019675;28;20504;-76
2023/08/20 03:26:03;;;;;;;8.50;7.60;;;22.00;99.90;;;;;;5024232;28;20032;-74
2023/08/20 03:28:31;;;;;;;12.18;7.22;;;22.00;99.90;;;;;;5024105;28;20033;-75
2023/08/20 03:31:01;;;;;;;11.65;7.65;;;22.00;99.90;;;;;;5028959;28;20029;-76
2023/08/20 03:33:32;;;;;;;8.70;7.57;;;21.90;99.90;;;;;;5028676;28;20033;-75
2023/08/20 03:35:58;;;;;;;8.85;7.32;;;21.90;99.90;;;;;;5027721;28;20109;-76
2023/08/20 03:38:23;;;;;;;12.90;7.65;;;21.90;99.90;;;;;;5020734;28;20112;-76
2023/08/20 03:40:50;;;;;;;9.73;7.88;;;21.90;99.90;;;;;;5021312;28;20080;-74
2023/08/20 03:43:15;;;;;;;9.00;7.18;;;21.90;99.90;;;;;;5028140;28;20134;-76
2023/08/20 03:45:44;;;;;;;10.93;7.95;;;21.80;99.90;;;;;;5024195;28;20113;-75
2023/08/20 03:48:19;;;;;;;11.65;6.93;;;21.80;99.90;;;;;;5023914;28;20022;-74
2023/08/20 03:50:47;;;;;;;9.07;7.28;;;21.80;99.90;;;;;;5021069;28;20369;-75
2023/08/20 03:53:13;;;;;;;12.25;7.90;;;21.80;99.90;;;;;;5029187;28;20025;-74
2023/08/20 03:55:51;;;;;;;11.65;7.55;;;21.70;99.90;;;;;;5023706;28;20500;-76
2023/08/20 03:58:17;;;;;;;8.82;7.28;;;21.60;99.90;;;;;;5022951;28;20132;-76
2023/08/20 04:00:49;;;;;;;9.73;7.47;;;21.70;99.90;;;;;;5024269;28;20454;-77
2023/08/20 04:03:19;;;;;;;8.95;8.00;;;21.70;99.90;;;;;;5023758;28;20477;-76
2023/08/20 04:05:51;;;;;;;14.55;7.22;;;21.60;99.90;;;;;;5022333;28;20018;-76
2023/08/20 04:08:16;;;;;;;12.02;7.43;;;21.70;99.90;;;;;;5020153;28;20017;-74
2023/08/20 04:10:44;;;;;;;9.65;7.55;;;21.60;99.90;;;;;;5027186;28;20212;-75
2023/08/20 04:13:10;;;;;;;9.27;7.65;;;21.60;99.90;;;;;;5025254;28;20021;-77
2023/08/20 04:15:56;;;;;;;16.17;8.70;;;21.60;99.90;;;;;;5021669;28;20022;-77
2023/08/20 04:18:22;;;;;;;10.10;7.88;;;21.60;99.90;;;;;;5025066;28;20045;-76
2023/08/20 04:21:08;;;;;;;13.80;8.48;;;21.60;99.90;;;;;;5023170;28;20064;-76
2023/08/20 04:23:33;;;;;;;9.80;7.00;;;21.60;99.90;;;;;;5017954;28;20042;-76
2023/08/20 04:26:17;;;;;;;11.63;8.18;;;21.50;99.90;;;;;;5030199;28;20467;-76
2023/08/20 04:28:43;;;;;;;;;;;21.50;99.90;;;;;;5022181;28;20104;-75
2023/08/20 04:31:15;;;;;;;10.07;7.07;;;21.50;99.90;;;;;;5020015;28;20431;-75
2023/08/20 04:33:46;;;;;;;11.88;7.63;;;21.50;99.90;;;;;;5022542;28;20053;-76
2023/08/20 04:36:18;;;;;;;11.02;7.63;;;21.40;99.90;;;;;;5023936;28;20040;-73
2023/08/20 04:38:43;;;;;;;11.85;7.68;;;21.40;99.90;;;;;;5022010;28;20025;-75
2023/08/20 04:41:12;;;;;;;12.38;7.53;;;21.40;99.90;;;;;;5021382;28;20065;-75
2023/08/20 04:43:37;;;;;;;11.50;8.00;;;21.40;99.90;;;;;;5024748;28;20498;-76
2023/08/20 04:46:06;;;;;;;11.07;7.60;;;21.40;99.90;;;;;;5026549;28;20033;-76
2023/08/20 04:48:32;;;;;;;10.27;7.70;;;21.50;99.90;;;;;;5023940;28;20057;-75
2023/08/20 04:51:01;;;;;;;12.10;8.13;;;21.40;99.90;;;;;;5026230;28;20103;-76
2023/08/20 04:53:32;;;;;;;11.20;7.57;;;21.40;99.90;;;;;;5021311;28;20044;-76
2023/08/20 04:55:59;;;;;;;9.40;7.32;;;21.40;99.90;;;;;;5019026;28;20059;-76
2023/08/20 04:58:27;;;;;;;13.55;8.05;;;21.40;99.90;;;;;;5021494;28;20029;-76
2023/08/20 05:00:53;;;;;;;9.10;7.95;;;21.40;99.90;;;;;;5020216;28;20396;-76
2023/08/20 05:03:19;;;;;;;10.15;7.65;;;21.50;99.90;;;;;;5026142;28;20033;-75
2023/08/20 05:05:49;;;;;;;10.07;7.53;;;21.50;99.90;;;;;;5025924;28;20021;-76
2023/08/20 05:08:17;;;;;;;9.65;7.53;;;21.50;99.90;;;;;;5019262;28;20029;-75
2023/08/20 05:10:50;;;;;;;14.43;9.55;;;21.40;99.90;;;;;;5019495;28;20087;-76
2023/08/20 05:13:20;;;;;;;10.48;8.38;;;21.40;99.90;;;;;;5023148;28;20026;-76
2023/08/20 05:15:51;;;;;;;13.30;9.07;;;21.40;99.90;;;;;;5026015;28;20031;-76
2023/08/20 05:18:17;;;;;;;12.35;8.82;;;21.40;99.90;;;;;;5029994;28;20128;-76
2023/08/20 05:20:42;;;;;;;12.85;8.32;;;21.40;99.90;;;;;;5028433;28;20064;-76
2023/08/20 05:23:08;;;;;;;15.45;8.18;;;21.40;99.90;;;;;;5022081;28;20026;-76
2023/08/20 05:25:33;;;;;;;11.57;7.88;;;21.50;99.90;;;;;;5022277;28;20155;-75
2023/08/20 05:28:01;;;;;;;12.18;7.70;;;21.50;99.90;;;;;;5027122;28;20124;-75
2023/08/20 05:30:26;;;;;;;11.85;8.52;;;21.60;99.90;;;;;;5024913;28;20022;-75
2023/08/20 05:32:52;;;;;;;11.65;8.63;;;21.60;99.90;;;;;;5019573;28;20369;-76
2023/08/20 05:35:17;;;;;;;11.90;7.72;;;21.70;99.90;;;;;;5018744;28;20550;-75
2023/08/20 05:37:43;;;;;;;12.13;8.93;;;21.80;99.90;;;;;;5020540;28;20061;-77
2023/08/20 05:40:18;;;;;;;12.70;8.15;;;21.80;99.90;;;;;;5022226;28;20040;-75
2023/08/20 05:42:46;;;;;;;10.43;7.95;;;21.90;99.90;;;;;;5018946;28;20389;-76
2023/08/20 05:45:14;;;;;;;11.20;8.32;;;22.00;99.90;;;;;;5025657;28;20026;-77
2023/08/20 05:47:40;;;;;;;12.35;8.60;;;22.00;99.90;;;;;;5029606;28;20032;-75
2023/08/20 05:50:06;;;;;;;14.52;9.55;;;22.00;99.90;;;;;;5024546;28;20017;-76
2023/08/20 05:52:31;;;;;;;12.20;8.52;;;22.10;99.90;;;;;;5018488;28;20030;-75
2023/08/20 05:54:57;;;;;;;14.35;8.73;;;22.20;99.90;;;;;;5023248;28;20022;-76
2023/08/20 05:57:23;;;;;;;15.50;8.60;;;22.30;99.90;;;;;;5020031;28;20025;-72
2023/08/20 05:59:57;;;;;;;12.50;8.48;;;22.30;99.90;;;;;;5013227;28;20026;-71
2023/08/20 06:02:25;;;;;;;13.57;8.68;;;22.40;99.90;;;;;;5016567;28;20079;-72
2023/08/20 06:04:51;;;;;;;13.63;8.68;;;22.50;99.90;;;;;;5022344;28;20614;-72
2023/08/20 06:07:17;;;;;;;12.15;8.20;;;22.50;99.90;;;;;;5017047;28;20120;-71
2023/08/20 06:09:51;;;;;;;14.00;8.15;;;22.60;99.90;;;;;;5018502;28;20030;-72
2023/08/20 06:12:17;;;;;;;11.55;8.75;;;22.60;99.90;;;;;;5021583;28;20483;-71
2023/08/20 06:14:46;;;;;;;11.50;9.15;;;22.70;99.90;;;;;;5022896;28;20018;-72
2023/08/20 06:17:11;;;;;;;12.57;8.52;;;22.80;99.90;;;;;;5019041;28;20034;-72
2023/08/20 06:19:37;;;;;;;13.98;8.93;;;22.90;99.90;;;;;;5018047;28;20037;-72
2023/08/20 06:22:09;;;;;;;16.65;9.65;;;22.90;99.90;;;;;;5019461;28;20485;-73
2023/08/20 06:24:37;;;;;;;14.88;9.95;;;22.90;99.90;;;;;;5017575;28;20062;-73
2023/08/20 06:27:06;;;;;;;16.08;9.32;;;22.90;99.90;;;;;;5017191;28;20389;-71
2023/08/20 06:29:40;;;;;;;18.40;9.73;;;23.00;99.90;;;;;;5027329;28;20085;-76
2023/08/20 06:32:06;;;;;;;12.82;8.82;;;23.10;99.90;;;;;;5026834;28;20083;-76
2023/08/20 06:34:34;;;;;;;12.07;9.13;;;23.10;99.90;;;;;;5020071;28;20440;-73
2023/08/20 06:36:59;;;;;;;13.50;9.13;;;23.00;99.90;;;;;;5024376;28;20361;-78
2023/08/20 06:39:25;;;;;;;10.90;8.25;;;23.00;99.90;;;;;;5018699;28;20030;-77
2023/08/20 06:42:03;;;;;;;11.00;9.10;;;23.10;99.90;;;;;;5027228;28;20038;-78
2023/08/20 06:44:31;;;;;;;14.57;8.60;;;23.10;99.90;;;;;;5020379;28;20664;-77
2023/08/20 06:47:00;;;;;;;10.00;7.93;;;23.20;99.90;;;;;;5023261;28;20052;-76
2023/08/20 06:49:25;;;;;;;14.25;9.25;;;23.20;99.90;;;;;;5022515;28;20395;-78
2023/08/20 06:51:51;;;;;;;11.30;8.15;;;23.30;99.90;;;;;;5022396;28;20022;-75
2023/08/20 06:54:16;;;;;;;10.23;8.10;;;23.30;99.90;;;;;;5023415;28;20037;-76
2023/08/20 06:56:42;;;;;;;12.38;8.15;;;23.40;99.90;;;;;;5020166;28;20029;-74
2023/08/20 06:59:11;;;;;;;11.80;8.50;;;23.50;99.90;;;;;;5023175;28;20394;-75
2023/08/20 07:01:36;;;;;;;11.73;8.32;;;23.60;99.90;;;;;;5022971;28;20025;-75
2023/08/20 07:04:08;;;;;;;10.27;8.20;;;23.70;99.90;;;;;;5020900;28;20036;-75
2023/08/20 07:06:34;;;;;;;10.68;8.55;;;23.70;99.90;;;;;;5036743;28;20436;-76
2023/08/20 07:08:59;;;;;;;15.32;8.70;;;23.70;99.90;;;;;;5026050;28;20030;-77
2023/08/20 07:11:25;;;;;;;11.40;8.98;;;23.80;99.90;;;;;;5019605;28;20028;-77
2023/08/20 07:13:51;;;;;;;14.07;9.05;;;23.80;99.90;;;;;;5021936;28;20026;-79
2023/08/20 07:16:16;;;;;;;12.98;8.05;;;23.80;99.90;;;;;;5029084;28;20030;-78
2023/08/20 07:18:42;;;;;;;11.15;8.40;;;23.80;99.90;;;;;;5027682;28;20492;-77
2023/08/20 07:21:19;;;;;;;14.40;9.23;;;23.90;99.90;;;;;;5015361;28;20030;-77
2023/08/20 07:23:45;;;;;;;11.07;7.80;;;23.90;99.90;;;;;;5023210;28;20033;-78
2023/08/20 07:26:16;;;;;;;12.52;8.55;;;24.00;99.90;;;;;;5041727;23;20084;-76
2023/08/20 07:28:58;;;;;;;10.23;8.00;;;24.00;99.90;;;;;;5029667;28;20022;-77
2023/08/20 07:31:27;;;;;;;10.73;8.38;;;24.10;99.90;;;;;;5030990;28;20022;-77
2023/08/20 07:34:03;;;;;;;13.63;9.02;;;24.10;99.90;;;;;;5030821;28;20036;-77
2023/08/20 07:36:31;;;;;;;13.93;8.02;;;24.10;99.90;;;;;;5027209;28;20093;-77
2023/08/20 07:39:00;;;;;;;14.38;8.60;;;24.20;99.90;;;;;;5028183;28;20033;-77
2023/08/20 07:41:26;;;;;;;14.50;8.65;;;24.20;99.90;;;;;;5013912;28;20108;-76
2023/08/20 07:43:55;;;;;;;11.13;8.13;;;24.30;99.90;;;;;;5017716;28;20056;-76
2023/08/20 07:46:20;;;;;;;8.90;8.00;;;24.40;99.90;;;;;;5026223;28;20034;-75
2023/08/20 07:48:46;;;;;;;14.10;8.93;;;24.40;99.90;;;;;;5023562;28;20499;-76
2023/08/20 07:51:12;;;;;;;13.55;8.98;;;24.40;99.90;;;;;;5023645;28;20034;-76
2023/08/20 07:53:37;;;;;;;11.73;8.65;;;24.50;99.90;;;;;;5025146;28;20482;-76
2023/08/20 07:56:04;;;;;;;11.10;8.30;;;24.50;99.90;;;;;;5026411;28;20025;-75
2023/08/20 07:58:35;;;;;;;12.02;8.93;;;24.60;99.90;;;;;;5022289;28;20273;-76
2023/08/20 08:01:01;;;;;;;15.13;9.57;;;24.70;99.90;;;;;;5038131;28;20039;-75
2023/08/20 08:03:27;;;;;;;10.93;8.23;;;24.80;99.90;;;;;;5022464;28;20021;-75
2023/08/20 08:05:55;;;;;;;22.23;8.90;;;24.90;99.90;;;;;;5022325;28;20553;-74
2023/08/20 08:08:28;;;;;;;10.00;8.15;;;25.00;99.90;;;;;;5025057;28;20022;-78
2023/08/20 08:10:57;;;;;;;16.08;9.82;;;25.00;99.90;;;;;;5030783;28;20045;-79
2023/08/20 08:13:24;;;;;;;13.93;8.35;;;25.10;99.90;;;;;;5030804;28;20965;-80
2023/08/20 08:15:53;;;;;;;13.50;8.63;;;25.20;99.90;;;;;;5029164;28;20026;-80
2023/08/20 08:18:19;;;;;;;12.25;9.20;;;25.30;99.90;;;;;;5020387;28;20525;-79
2023/08/20 08:20:45;;;;;;;14.07;9.05;;;25.40;99.90;;;;;;5033194;28;20056;-80
2023/08/20 08:23:14;;;;;;;12.32;8.43;;;25.40;99.90;;;;;;5030481;28;20025;-79
2023/08/20 08:25:46;;;;;;;13.18;9.50;;;25.40;99.90;;;;;;5030115;28;20910;-80
2023/08/20 08:28:20;;;;;;;8.95;7.75;;;25.50;99.90;;;;;;5028229;28;20049;-80
2023/08/20 08:30:49;;;;;;;12.55;8.48;;;25.70;99.90;;;;;;5031809;28;20029;-79
2023/08/20 08:33:17;;;;;;;11.38;8.30;;;25.80;99.90;;;;;;5033083;28;20041;-79
2023/08/20 08:35:43;;;;;;;9.05;7.65;;;25.80;99.90;;;;;;5045637;28;20032;-79
2023/08/20 08:38:09;;;;;;;12.73;9.45;;;25.90;99.90;;;;;;5032869;28;20029;-80
2023/08/20 08:40:34;;;;;;;14.02;9.23;;;25.90;99.90;;;;;;5028205;28;20155;-80
2023/08/20 08:43:01;;;;;;;11.60;8.88;;;26.00;99.90;;;;;;5027909;28;20038;-80
2023/08/20 08:45:27;;;;;;;9.73;8.65;;;26.00;99.90;;;;;;5032835;28;20408;-80
2023/08/20 08:47:54;;;;;;;15.25;8.95;;;26.10;99.90;;;;;;5033891;28;20044;-79
2023/08/20 08:50:20;;;;;;;11.20;7.85;;;26.10;99.90;;;;;;5026862;28;20028;-79
2023/08/20 08:52:50;;;;;;;9.88;7.68;;;26.20;99.90;;;;;;5032473;28;20030;-79
2023/08/20 08:55:16;;;;;;;10.85;8.82;;;26.20;99.90;;;;;;5029178;28;20049;-80
2023/08/20 08:57:41;;;;;;;10.55;8.60;;;26.30;99.90;;;;;;5022910;28;20076;-80
2023/08/20 09:00:07;;;;;;;15.75;8.18;;;26.30;99.90;;;;;;5033110;28;20021;-81
2023/08/20 09:02:42;;;;;;;10.15;7.85;;;26.40;99.90;;;;;;5031455;28;20152;-81
2023/08/20 09:05:08;;;;;;;11.75;8.57;;;26.50;99.90;;;;;;5030530;28;20033;-79
2023/08/20 09:07:43;;;;;;;12.00;9.10;;;26.50;99.90;;;;;;5036714;28;20033;-81
2023/08/20 09:10:09;;;;;;;11.95;8.20;;;26.60;99.90;;;;;;5028510;28;20551;-79
2023/08/20 09:12:41;;;;;;;9.02;8.13;;;26.70;99.90;;;;;;5032783;28;20017;-80
2023/08/20 09:15:12;;;;;;;13.82;8.43;;;26.70;99.90;;;;;;5032035;28;20058;-79
2023/08/20 09:17:41;;;;;;;11.95;8.65;;;26.80;99.90;;;;;;5025749;28;20025;-80
2023/08/20 09:20:33;;;;;;;12.35;8.38;;;26.90;99.90;;;;;;5029667;28;20073;-79
2023/08/20 09:22:58;;;;;;;13.88;8.20;;;27.00;99.90;;;;;;5033192;28;20156;-80
2023/08/20 09:25:24;;;;;;;12.85;8.55;;;27.00;99.90;;;;;;5032458;28;20499;-81
2023/08/20 09:27:50;;;;;;;11.38;8.95;;;27.10;99.90;;;;;;5027540;28;20038;-80
2023/08/20 09:30:20;;;;;;;14.68;7.53;;;27.20;99.90;;;;;;5031102;28;20022;-79
2023/08/20 09:33:02;;;;;;;11.55;8.27;;;27.20;99.90;;;;;;5034945;28;20025;-80
2023/08/20 09:35:27;;;;;;;11.90;8.43;;;27.20;99.90;;;;;;5031716;28;20044;-79
2023/08/20 09:38:03;;;;;;;15.52;7.75;;;27.30;99.90;;;;;;5030403;28;20025;-80
2023/08/20 09:40:32;;;;;;;10.07;6.93;;;27.30;99.90;;;;;;5032788;28;20037;-80
2023/08/20 09:43:07;;;;;;;11.20;7.80;;;27.40;99.90;;;;;;5028874;28;20052;-79
2023/08/20 09:45:37;;;;;;;9.65;8.05;;;27.50;99.90;;;;;;5030725;28;20024;-79
2023/08/20 09:48:11;;;;;;;9.77;8.07;;;27.50;99.90;;;;;;5032371;28;20033;-80
2023/08/20 09:50:39;;;;;;;11.90;7.20;;;27.50;99.90;;;;;;5028741;28;20029;-80
2023/08/20 09:53:18;;;;;;;9.50;7.38;;;27.60;99.90;;;;;;5029158;28;20187;-81
2023/08/20 09:55:50;;;;;;;9.15;6.78;;;27.70;99.90;;;;;;5030196;28;20032;-81
2023/08/20 09:58:16;;;;;;;8.48;6.88;;;27.80;99.90;;;;;;5017877;28;20030;-76
2023/08/20 10:00:42;;;;;;;9.93;7.38;;;27.80;99.90;;;;;;5025578;28;20014;-75
2023/08/20 10:03:09;;;;;;;8.25;6.30;;;27.90;99.90;;;;;;5022677;28;20034;-75
2023/08/20 10:05:35;;;;;;;10.70;7.07;;;27.80;99.90;;;;;;5025678;28;20622;-76
2023/08/20 10:08:02;;;;;;;13.38;6.93;;;27.90;99.90;;;;;;5021390;28;20033;-76
2023/08/20 10:10:28;;;;;;;11.55;7.28;;;27.90;99.90;;;;;;5021116;28;20010;-76
2023/08/20 10:12:57;;;;;;;7.57;6.40;;;27.90;99.90;;;;;;5016234;28;20041;-75
2023/08/20 10:15:31;;;;;;;8.80;6.72;;;27.90;99.90;;;;;;5020167;28;20030;-79
2023/08/20 10:17:57;;;;;;;10.05;7.13;;;28.00;99.90;;;;;;5018289;28;20040;-74
2023/08/20 10:20:23;;;;;;;7.35;6.40;;;28.00;99.90;;;;;;5019647;28;20030;-75
2023/08/20 10:22:51;;;;;;;9.70;7.03;;;28.00;99.90;;;;;;5016913;28;20044;-75
2023/08/20 10:25:24;;;;;;;8.93;6.43;;;28.00;99.90;;;;;;5019424;28;20057;-76
2023/08/20 10:27:51;;;;;;;8.20;6.65;;;28.00;99.90;;;;;;5016897;28;20092;-71
2023/08/20 10:30:25;;;;;;;7.72;6.03;;;28.10;99.90;;;;;;5017434;28;20053;-74
2023/08/20 10:33:08;;;;;;;9.70;7.07;;;28.10;99.90;;;;;;5017978;28;20025;-72
2023/08/20 10:35:40;;;;;;;8.82;6.63;;;28.10;99.90;;;;;;5017528;28;20049;-76
2023/08/20 10:38:17;;;;;;;10.52;7.07;;;28.10;99.90;;;;;;5016943;28;20033;-79
2023/08/20 10:40:59;;;;;;;8.90;7.20;;;28.10;99.90;;;;;;5018676;28;20025;-74
2023/08/20 10:43:51;;;;;;;11.25;6.72;;;28.20;99.90;;;;;;5016301;28;20079;-74
2023/08/20 10:46:18;;;;;;;9.73;6.75;;;28.20;99.90;;;;;;5018698;28;20408;-75
2023/08/20 10:48:55;;;;;;;8.70;7.05;;;28.30;99.90;;;;;;5018045;28;20025;-75
2023/08/20 10:51:28;;;;;;;7.70;6.90;;;28.30;99.90;;;;;;5019088;28;20439;-76
2023/08/20 10:54:14;;;;;;;9.73;6.90;;;28.40;99.90;;;;;;5019157;28;20026;-76
2023/08/20 10:56:42;;;;;;;8.30;6.53;;;28.40;99.90;;;;;;5020478;28;20057;-76
2023/08/20 10:59:12;;;;;;;7.97;7.00;;;28.50;99.90;;;;;;5016868;28;20029;-75
2023/08/20 11:01:38;;;;;;;8.55;6.50;;;28.40;99.90;;;;;;5016330;28;20049;-74
2023/08/20 11:04:08;;;;;;;7.50;5.43;;;28.50;99.90;;;;;;5016854;28;20104;-73
2023/08/20 11:06:34;;;;;;;15.00;6.15;;;28.60;99.60;;;;;;5015236;28;20376;-75
2023/08/20 11:09:00;;;;;;;11.05;6.10;;;28.60;99.50;;;;;;5016573;28;20080;-77
2023/08/20 11:11:26;;;;;;;9.57;6.70;;;28.60;99.30;;;;;;5020434;28;20018;-74
2023/08/20 11:13:52;;;;;;;9.50;6.65;;;28.70;99.30;;;;;;5018021;28;20036;-74
2023/08/20 11:16:19;;;;;;;8.80;5.82;;;28.70;98.90;;;;;;5016748;28;20026;-73
2023/08/20 11:18:44;;;;;;;8.77;5.75;;;28.80;98.70;;;;;;5014920;28;20091;-75
2023/08/20 11:21:10;;;;;;;10.52;6.10;;;28.80;98.20;;;;;;5013709;28;20026;-73
2023/08/20 11:23:38;;;;;;;8.43;6.10;;;28.80;98.40;;;;;;5020965;28;20033;-74
2023/08/20 11:26:04;;;;;;;12.60;5.55;;;28.80;98.10;;;;;;5024431;28;20037;-73
2023/08/20 11:28:30;;;;;;;14.38;7.15;;;28.90;97.90;;;;;;5029240;28;20032;-75
2023/08/20 11:30:56;;;;;;;7.43;5.30;;;28.90;97.80;;;;;;5020902;28;20113;-76
2023/08/20 11:33:22;;;;;;;13.63;6.32;;;28.90;97.30;;;;;;5022984;28;20029;-76
2023/08/20 11:35:48;;;;;;;8.02;5.68;;;28.90;97.40;;;;;;5023286;28;20022;-77
2023/08/20 11:38:14;;;;;;;11.73;5.75;;;28.90;97.40;;;;;;5025725;28;20042;-77
2023/08/20 11:40:40;;;;;;;11.68;5.68;;;28.90;96.90;;;;;;5016069;28;20408;-76
2023/08/20 11:43:06;;;;;;;8.50;5.60;;;29.00;96.90;;;;;;5022061;28;20063;-76
2023/08/20 11:45:32;;;;;;;7.47;5.47;;;29.00;96.80;;;;;;5024818;28;20056;-76
2023/08/20 11:47:58;;;;;;;11.63;5.43;;;29.10;96.90;;;;;;5034562;28;20060;-75
2023/08/20 11:50:24;;;;;;;8.07;4.53;;;29.20;95.50;;;;;;5036884;28;20018;-77
2023/08/20 11:52:54;;;;;;;8.05;5.03;;;29.20;95.50;;;;;;5038338;28;20277;-78
2023/08/20 11:55:24;;;;;;;11.48;5.10;;;29.30;95.40;;;;;;5039474;28;20057;-78
2023/08/20 11:57:52;;;;;;;7.53;5.72;;;29.30;95.40;;;;;;5038773;28;20025;-77
2023/08/20 12:00:29;;;;;;;8.25;5.32;;;29.40;95.90;;;;;;5035915;28;20025;-77
2023/08/20 12:02:55;;;;;;;8.68;5.40;;;29.40;95.20;;;;;;5035546;28;20037;-77
2023/08/20 12:05:42;;;;;;;9.07;5.95;;;29.40;95.40;;;;;;5035181;28;20029;-77
2023/08/20 12:08:07;;;;;;;10.02;5.80;;;29.50;96.00;;;;;;5035434;28;20022;-77
2023/08/20 12:10:34;;;;;;;7.88;5.60;;;29.60;96.20;;;;;;5036726;28;20087;-76
2023/08/20 12:13:05;;;;;;;10.73;5.70;;;29.70;96.00;;;;;;5034096;28;20372;-77
2023/08/20 12:15:31;;;;;;;10.23;5.40;;;29.80;96.10;;;;;;5028415;28;20022;-77
2023/08/20 12:18:02;;;;;;;10.20;6.32;;;29.80;95.90;;;;;;5016888;28;20443;-78
2023/08/20 12:20:29;;;;;;;10.27;5.50;;;29.90;95.80;;;;;;5033750;28;20045;-77
2023/08/20 12:23:01;;;;;;;5.60;5.10;;;29.90;95.70;;;;;;5018859;28;20424;-76
2023/08/20 12:25:34;;;;;;;6.22;5.53;;;29.80;95.30;;;;;;5025245;28;20017;-77
2023/08/20 12:28:05;;;;;;;8.55;6.70;;;29.90;95.30;;;;;;5014822;28;20034;-76
2023/08/20 12:30:32;;;;;;;9.63;5.95;;;30.00;95.20;;;;;;5013634;28;20116;-77
2023/08/20 12:32:58;;;;;;;8.05;5.80;;;30.00;95.20;;;;;;5016437;28;20022;-77
2023/08/20 12:35:23;;;;;;;8.63;5.40;;;30.10;95.20;;;;;;5016166;28;20022;-78
2023/08/20 12:37:49;;;;;;;12.35;6.18;;;30.10;94.80;;;;;;5016657;28;20527;-77
2023/08/20 12:40:15;;;;;;;8.45;5.72;;;30.10;94.20;;;;;;5017061;28;20022;-77
2023/08/20 12:42:41;;;;;;;7.75;5.47;;;30.10;94.20;;;;;;5017632;28;20030;-77
2023/08/20 12:45:10;;;;;;;7.60;4.90;;;30.20;94.30;;;;;;5016629;28;20370;-77
2023/08/20 12:47:36;;;;;;;16.02;5.57;;;30.10;94.20;;;;;;5032521;28;20496;-77
2023/08/20 12:50:04;;;;;;;7.57;6.03;;;30.20;93.90;;;;;;5028795;28;20018;-76